Time;durP1;ratioP1;P1;durP2;ratioP2;P2;SDS_P1;SDS_P2;PMS_P1;PMS_P2;Temp;Humidity;BMP_temperature;BMP_pressure;BME280_temperature;BME280_humidity;BME280_pressure;Samples;Min_cycle;Max_cycle;Signal;HPM_P1;HPM_P2
2021/09/21 00:01:49;;;;;;;;;26.50;23.00;;;;;18.03;100.00;102251.34;5019227;28;45356;-75
2021/09/21 00:04:14;;;;;;;;;26.25;21.50;;;;;18.12;100.00;102281.13;5019015;28;46050;-76
2021/09/21 00:06:39;;;;;;;;;26.00;23.00;;;;;18.08;100.00;102282.06;5018433;28;45405;-76
2021/09/21 00:09:05;;;;;;;;;24.00;22.50;;;;;18.02;100.00;102286.59;5018615;28;45333;-75
2021/09/21 00:11:30;;;;;;;;;26.50;24.00;;;;;17.98;100.00;102290.22;5018993;28;45260;-76
2021/09/21 00:17:17;;;;;;;;;27.25;23.50;;;;;17.95;100.00;102292.06;5018676;28;45393;-75
2021/09/21 00:19:43;;;;;;;;;26.75;21.75;;;;;17.83;100.00;102285.22;5018289;28;45341;-75
2021/09/21 00:22:08;;;;;;;;;24.50;23.50;;;;;17.89;100.00;102305.38;5018525;28;45584;-75
2021/09/21 00:24:34;;;;;;;;;28.75;26.50;;;;;17.73;100.00;102289.81;5018554;28;45432;-75
2021/09/21 00:26:59;;;;;;;;;27.25;23.50;;;;;17.76;100.00;102291.53;5018658;28;45464;-74
2021/09/21 00:29:25;;;;;;;;;24.25;22.00;;;;;17.78;100.00;102296.78;5018595;28;45958;-76
2021/09/21 00:31:59;;;;;;;;;25.50;23.50;;;;;17.70;100.00;102294.31;5018438;28;45303;-76
2021/09/21 00:34:27;;;;;;;;;24.00;19.25;;;;;17.64;100.00;102292.59;5018381;28;46495;-75
2021/09/21 00:36:53;;;;;;;;;23.50;21.00;;;;;17.61;100.00;102292.66;5016984;28;45301;-75
2021/09/21 00:39:18;;;;;;;;;23.75;20.25;;;;;17.59;100.00;102290.94;5018458;28;45291;-75
2021/09/21 00:41:45;;;;;;;;;24.25;22.50;;;;;17.61;100.00;102307.63;5018579;28;45483;-75
2021/09/21 00:47:32;;;;;;;;;27.25;25.00;;;;;17.55;100.00;102305.09;5017535;28;45309;-75
2021/09/21 00:49:58;;;;;;;;;21.50;20.50;;;;;17.55;100.00;102310.38;5018487;28;45453;-76
2021/09/21 00:52:23;;;;;;;;;24.25;21.25;;;;;17.50;100.00;102297.28;5018642;28;45175;-76
2021/09/21 00:54:49;;;;;;;;;32.25;26.50;;;;;17.46;100.00;102298.22;5018202;28;45457;-75
2021/09/21 00:57:15;;;;;;;;;22.75;21.50;;;;;17.45;100.00;102305.28;5017473;28;45356;-73
2021/09/21 00:59:41;;;;;;;;;25.00;24.00;;;;;17.37;100.00;102301.88;5018295;28;45456;-76
2021/09/21 01:02:06;;;;;;;;;24.75;22.50;;;;;17.33;100.00;102320.44;5018740;28;45390;-75
2021/09/21 01:04:32;;;;;;;;;25.50;22.75;;;;;17.29;100.00;102319.63;5017942;28;46806;-75
2021/09/21 01:06:58;;;;;;;;;25.00;21.25;;;;;17.27;100.00;102320.56;5017269;28;45357;-75
2021/09/21 01:09:27;;;;;;;;;26.00;21.50;;;;;17.29;100.00;102324.91;5018070;28;45398;-75
2021/09/21 01:11:55;;;;;;;;;28.75;22.75;;;;;17.23;100.00;102327.66;5017836;28;45603;-75
2021/09/21 01:17:43;;;;;;;;;30.75;28.00;;;;;17.21;100.00;102315.41;5018038;28;45713;-76
2021/09/21 01:20:10;;;;;;;;;24.50;23.00;;;;;17.22;100.00;102320.66;5017880;28;45282;-75
2021/09/21 01:22:35;;;;;;;;;28.00;23.75;;;;;17.22;100.00;102325.94;5017529;28;45582;-76
2021/09/21 01:25:01;;;;;;;;;27.75;23.00;;;;;17.21;100.00;102321.53;5017611;28;46697;-75
2021/09/21 01:27:27;;;;;;;;;23.50;22.50;;;;;17.17;100.00;102322.47;5016925;28;45357;-74
2021/09/21 01:29:52;;;;;;;;;24.75;22.50;;;;;17.02;100.00;102299.84;4999659;28;45342;-75
2021/09/21 01:32:21;;;;;;;;;23.25;21.00;;;;;17.15;100.00;102327.78;5017868;28;45349;-74
2021/09/21 01:34:47;;;;;;;;;28.75;25.50;;;;;17.15;100.00;102332.19;5017240;28;45535;-75
2021/09/21 01:37:13;;;;;;;;;29.00;24.50;;;;;17.09;100.00;102327.88;5017152;28;45235;-71
2021/09/21 01:39:40;;;;;;;;;30.75;26.75;;;;;17.08;100.00;102336.69;5017411;28;45326;-76
2021/09/21 01:42:05;;;;;;;;;31.25;28.50;;;;;16.95;100.00;102326.34;5017697;28;45406;-75
2021/09/21 01:47:53;;;;;;;;;32.00;27.50;;;;;16.96;100.00;102334.22;5016577;28;45661;-75
2021/09/21 01:50:29;;;;;;;;;28.00;26.00;;;;;16.93;100.00;102334.28;5017281;28;45219;-72
2021/09/21 01:53:04;;;;;;;;;33.50;27.25;;;;;16.80;100.00;102315.13;5017604;28;45455;-74
2021/09/21 02:00:46;;;;;;;;;34.50;27.25;;;;;16.90;100.00;102355.44;5017570;28;45437;-75
2021/09/21 02:03:11;;;;;;;;;33.25;27.50;;;;;16.90;100.00;102347.53;5017475;28;45476;-75
2021/09/21 02:05:37;;;;;;;;;34.75;25.75;;;;;16.93;100.00;102341.31;5016946;28;46475;-75
2021/09/21 02:08:02;;;;;;;;;31.50;26.00;;;;;16.99;100.00;102357.09;5017478;28;45313;-75
2021/09/21 02:10:27;;;;;;;;;30.00;27.00;;;;;17.00;100.00;102356.19;5017311;28;45360;-76
2021/09/21 02:12:53;;;;;;;;;30.25;26.25;;;;;17.03;100.00;102361.41;5017630;28;45203;-75
2021/09/21 02:15:21;;;;;;;;;29.75;26.75;;;;;17.03;100.00;102354.38;5017261;28;46600;-73
2021/09/21 02:17:46;;;;;;;;;29.50;27.75;;;;;17.09;100.00;102364.81;5017055;28;45690;-75
2021/09/21 02:20:13;;;;;;;;;30.00;26.00;;;;;17.09;100.00;102363.97;5017430;28;45343;-75
2021/09/21 02:22:38;;;;;;;;;33.50;28.25;;;;;17.07;100.00;102357.84;5017527;28;45305;-75
2021/09/21 02:25:04;;;;;;;;;31.25;29.00;;;;;17.05;100.00;102354.34;5016757;28;46366;-73
2021/09/21 02:27:29;;;;;;;;;37.75;28.50;;;;;16.90;100.00;102336.09;5017138;28;45369;-74
2021/09/21 02:33:16;;;;;;;;;32.50;28.00;;;;;16.96;100.00;102370.28;5017172;28;45452;-75
2021/09/21 02:35:42;;;;;;;;;40.25;32.50;;;;;16.87;100.00;102368.69;5016705;28;46042;-75
2021/09/21 02:38:08;;;;;;;;;36.25;28.75;;;;;16.91;100.00;102374.78;5016693;28;45343;-76
2021/09/21 02:40:33;;;;;;;;;39.75;29.00;;;;;16.88;100.00;102370.41;5017234;28;45351;-76
2021/09/21 02:42:59;;;;;;;;;36.75;32.00;;;;;16.80;100.00;102354.72;5017327;28;45349;-75
2021/09/21 02:45:24;;;;;;;;;32.75;28.75;;;;;16.79;100.00;102365.28;5016868;28;45973;-76
2021/09/21 02:47:50;;;;;;;;;34.50;30.75;;;;;16.72;100.00;102356.56;5016652;28;45468;-76
2021/09/21 02:50:15;;;;;;;;;40.00;34.00;;;;;16.65;100.00;102343.47;5017135;28;45500;-75
2021/09/21 02:52:40;;;;;;;;;39.25;33.50;;;;;16.64;100.00;102349.63;5017288;28;45324;-75
2021/09/21 02:55:07;;;;;;;;;37.75;32.00;;;;;16.61;100.00;102358.47;5016515;28;45321;-75
2021/09/21 02:57:36;;;;;;;;;41.25;30.00;;;;;16.61;100.00;102363.72;5016595;28;45299;-76
2021/09/21 03:03:27;;;;;;;;;35.00;29.75;;;;;16.56;100.00;102385.78;5020296;28;45238;-75
2021/09/21 03:05:58;;;;;;;;;39.75;32.75;;;;;16.48;100.00;102375.31;5019863;28;46145;-75
2021/09/21 03:08:24;;;;;;;;;43.00;32.50;;;;;16.48;100.00;102373.56;5019868;28;45339;-75
2021/09/21 03:11:05;;;;;;;;;39.75;31.25;;;;;16.51;100.00;102383.19;5020084;28;45255;-74
2021/09/21 03:17:09;;;;;;;;;47.00;35.00;;;;;16.55;100.00;102390.19;5019769;28;45445;-74
2021/09/21 03:19:00;;;;;;;;;43.00;34.25;;;;;16.53;100.00;102378.78;4998248;28;45598;-75
2021/09/21 03:21:26;;;;;;;;;39.25;35.00;;;;;16.56;100.00;102388.41;5020289;28;45250;-74
2021/09/21 03:23:51;;;;;;;;;39.25;33.00;;;;;16.61;100.00;102397.13;5020314;28;45421;-75
2021/09/21 03:26:16;;;;;;;;;40.00;32.00;;;;;16.59;100.00;102389.25;5019899;28;45348;-75
2021/09/21 03:28:42;;;;;;;;;41.25;34.00;;;;;16.66;100.00;102397.94;5019799;28;45277;-75
2021/09/21 03:31:07;;;;;;;;;41.50;34.25;;;;;16.58;100.00;102378.72;5019643;28;45219;-75
2021/09/21 03:33:33;;;;;;;;;44.50;34.25;;;;;16.66;100.00;102393.56;5019888;28;45455;-75
2021/09/21 03:35:58;;;;;;;;;45.75;35.00;;;;;16.68;100.00;102397.06;5019374;28;46266;-75
2021/09/21 03:38:23;;;;;;;;;42.50;31.75;;;;;16.69;100.00;102393.53;5019819;28;45230;-75
2021/09/21 03:40:49;;;;;;;;;39.00;32.00;;;;;16.74;100.00;102393.47;5019635;28;45262;-75
2021/09/21 03:43:14;;;;;;;;;44.25;35.00;;;;;16.63;100.00;102372.50;5019464;28;45394;-75
2021/09/21 03:49:02;;;;;;;;;48.75;35.75;;;;;16.77;100.00;102396.97;5017564;28;45734;-76
2021/09/21 03:51:28;;;;;;;;;59.50;44.75;;;;;16.73;100.00;102386.44;5019311;28;45389;-75
2021/09/21 03:53:53;;;;;;;;;51.50;38.00;;;;;16.78;100.00;102403.09;5019420;28;45452;-76
2021/09/21 03:56:19;;;;;;;;;46.75;33.25;;;;;16.74;100.00;102393.47;5019141;28;46628;-71
2021/09/21 03:58:44;;;;;;;;;42.00;33.00;;;;;16.77;100.00;102399.59;5019150;28;45298;-75
2021/09/21 04:01:09;;;;;;;;;41.50;33.50;;;;;16.74;100.00;102404.00;5019504;28;45336;-75
2021/09/21 04:03:35;;;;;;;;;41.00;33.50;;;;;16.72;100.00;102401.41;5019190;28;45270;-75
2021/09/21 04:06:00;;;;;;;;;46.00;38.00;;;;;16.65;100.00;102394.44;5018864;28;47391;-74
2021/09/21 04:08:26;;;;;;;;;42.25;35.50;;;;;16.59;100.00;102402.44;5019290;28;45278;-75
2021/09/21 04:10:51;;;;;;;;;49.25;39.25;;;;;16.59;100.00;102405.06;5018860;28;45410;-75
2021/09/21 04:13:16;;;;;;;;;43.75;33.50;;;;;16.54;100.00;102414.81;5019194;28;45420;-74
2021/09/21 04:19:03;;;;;;;;;42.75;35.50;;;;;16.38;100.00;102421.16;5018723;28;45659;-74
2021/09/21 04:21:28;;;;;;;;;43.00;33.00;;;;;16.36;100.00;102428.19;5019231;28;45259;-75
2021/09/21 04:23:54;;;;;;;;;42.00;34.75;;;;;16.26;100.00;102424.78;5019290;28;45313;-75
2021/09/21 04:26:19;;;;;;;;;42.00;35.25;;;;;16.27;100.00;102436.19;5000781;28;46452;-74
2021/09/21 04:28:45;;;;;;;;;46.50;35.25;;;;;16.23;100.00;102440.63;5018855;28;45294;-75
2021/09/21 04:31:17;;;;;;;;;45.75;37.25;;;;;16.15;100.00;102432.81;5018766;28;45384;-75
2021/09/21 04:33:42;;;;;;;;;38.00;33.00;;;;;16.02;100.00;102423.28;5019166;28;45203;-75
2021/09/21 04:36:10;;;;;;;;;49.00;37.25;;;;;16.04;100.00;102436.44;5018465;28;46475;-75
2021/09/21 04:38:36;;;;;;;;;49.75;37.50;;;;;16.01;100.00;102441.72;5018771;28;45836;-75
2021/09/21 04:41:03;;;;;;;;;39.00;34.25;;;;;15.94;100.00;102435.66;5018749;28;45419;-75
2021/09/21 04:43:30;;;;;;;;;43.50;35.75;;;;;15.99;100.00;102452.28;5018905;28;45345;-75
2021/09/21 04:49:17;;;;;;;;;49.00;35.75;;;;;15.88;100.00;102430.44;5017581;28;45350;-75
2021/09/21 04:51:42;;;;;;;;;46.50;36.50;;;;;15.88;100.00;102439.22;5000484;28;45403;-74
2021/09/21 04:54:08;;;;;;;;;47.75;37.50;;;;;15.83;100.00;102430.47;5018263;28;45435;-76
2021/09/21 04:56:33;;;;;;;;;49.25;36.25;;;;;15.82;100.00;102438.38;5017885;28;47371;-74
2021/09/21 04:58:59;;;;;;;;;44.00;36.50;;;;;15.77;100.00;102438.44;5018226;28;45433;-74
2021/09/21 05:01:25;;;;;;;;;41.50;33.75;;;;;15.75;100.00;102434.06;5017991;28;45388;-74
2021/09/21 05:03:50;;;;;;;;;46.25;36.50;;;;;15.71;100.00;102441.13;5018235;28;45340;-75
2021/09/21 05:06:15;;;;;;;;;42.75;35.50;;;;;15.61;100.00;102421.00;5017781;28;46905;-75
2021/09/21 05:08:43;;;;;;;;;37.00;33.25;;;;;15.66;100.00;102442.06;5017773;28;45257;-75
2021/09/21 05:11:08;;;;;;;;;41.75;35.00;;;;;15.67;100.00;102441.16;5017828;28;45360;-75
2021/09/21 05:13:34;;;;;;;;;44.25;36.00;;;;;15.62;100.00;102449.09;5018253;28;45337;-75
2021/09/21 05:19:21;;;;;;;;;40.50;34.75;;;;;15.54;100.00;102449.13;5017484;28;45241;-76
2021/09/21 05:21:46;;;;;;;;;37.75;33.00;;;;;15.52;100.00;102445.63;5017255;28;45434;-75
2021/09/21 05:24:12;;;;;;;;;47.75;33.50;;;;;15.53;100.00;102459.66;5017701;28;45275;-75
2021/09/21 05:26:37;;;;;;;;;38.00;33.00;;;;;15.48;100.00;102457.06;5017268;28;45323;-73
2021/09/21 05:29:04;;;;;;;;;33.75;30.50;;;;;15.47;100.00;102471.13;5017626;28;45289;-73
2021/09/21 05:31:29;;;;;;;;;40.50;34.25;;;;;15.42;100.00;102461.50;5017685;28;45310;-76
2021/09/21 05:33:54;;;;;;;;;41.00;34.25;;;;;15.45;100.00;102472.88;5017679;28;45302;-75
2021/09/21 05:36:20;;;;;;;;;36.25;32.00;;;;;15.42;100.00;102479.94;5017267;28;46567;-75
2021/09/21 05:38:45;;;;;;;;;41.50;34.00;;;;;15.43;100.00;102486.94;5017465;28;45218;-76
2021/09/21 05:41:12;;;;;;;;;41.50;33.75;;;;;15.40;100.00;102489.59;5017770;28;45424;-75
2021/09/21 05:43:37;;;;;;;;;44.75;37.00;;;;;15.22;100.00;102464.25;5017811;28;45426;-75
2021/09/21 05:49:24;;;;;;;;;44.50;33.25;;;;;15.37;100.00;102501.00;5016789;28;45724;-74
2021/09/21 05:51:50;;;;;;;;;39.25;34.00;;;;;15.38;100.00;102501.84;5017575;28;45286;-74
2021/09/21 05:54:15;;;;;;;;;36.25;32.75;;;;;15.33;100.00;102494.00;5017348;28;45441;-73
2021/09/21 05:56:41;;;;;;;;;40.25;31.50;;;;;15.37;100.00;102500.13;5017491;28;46335;-75
2021/09/21 05:59:07;;;;;;;;;39.75;31.00;;;;;15.40;100.00;102511.53;5017330;28;45319;-72
2021/09/21 06:04:55;;;;;;;;;36.00;32.00;;;;;15.43;100.00;102514.13;5017215;28;45303;-75
2021/09/21 06:07:20;;;;;;;;;37.50;32.50;;;;;15.44;100.00;102512.38;5017043;28;45977;-74
2021/09/21 06:09:45;;;;;;;;;30.75;27.25;;;;;15.44;100.00;102518.50;5017183;28;45309;-75
2021/09/21 06:12:11;;;;;;;;;35.75;30.50;;;;;15.29;100.00;102484.38;4999280;28;46215;-74
2021/09/21 06:14:37;;;;;;;;;32.50;26.50;;;;;15.49;100.00;102523.75;5017046;28;45584;-69
2021/09/21 06:17:03;;;;;;;;;31.25;27.00;;;;;15.48;100.00;102524.63;5016874;28;45521;-69
2021/09/21 06:19:29;;;;;;;;;30.00;25.00;;;;;15.48;100.00;102522.00;5016544;28;45807;-69
2021/09/21 06:21:54;;;;;;;;;31.75;26.00;;;;;15.44;100.00;102509.75;5016905;28;45283;-69
2021/09/21 06:24:19;;;;;;;;;26.75;25.25;;;;;15.55;100.00;102531.59;5017138;28;45484;-69
2021/09/21 06:26:45;;;;;;;;;31.25;25.75;;;;;15.56;100.00;102528.97;5016395;28;46099;-69
2021/09/21 06:29:10;;;;;;;;;26.00;24.25;;;;;15.59;100.00;102541.25;5016939;28;45281;-70
2021/09/21 06:34:57;;;;;;;;;33.00;29.00;;;;;15.63;100.00;102550.03;5018483;28;45270;-69
2021/09/21 06:37:22;;;;;;;;;28.75;26.75;;;;;15.61;100.00;102539.47;5020095;28;46178;-69
2021/09/21 06:39:48;;;;;;;;;30.50;26.50;;;;;15.61;100.00;102535.13;5020214;28;45483;-70
2021/09/21 06:42:13;;;;;;;;;31.25;26.00;;;;;15.74;100.00;102559.59;5020391;28;45496;-69
2021/09/21 06:44:39;;;;;;;;;22.50;21.00;;;;;15.65;100.00;102537.72;5020761;28;45329;-69
2021/09/21 06:47:04;;;;;;;;;22.50;20.50;;;;;15.81;100.00;102563.94;5019962;28;45360;-70
2021/09/21 06:49:30;;;;;;;;;31.25;23.75;;;;;15.81;100.00;102555.16;5019651;28;45396;-69
2021/09/21 06:51:56;;;;;;;;;31.25;26.25;;;;;15.79;100.00;102560.44;5020387;28;45338;-70
2021/09/21 06:54:21;;;;;;;;;29.00;24.00;;;;;15.83;100.00;102570.06;5020028;28;45556;-70
2021/09/21 06:56:46;;;;;;;;;29.75;25.00;;;;;15.87;100.00;102570.94;5019588;28;47337;-70
2021/09/21 06:59:12;;;;;;;;;25.75;23.00;;;;;15.97;100.00;102584.91;5019666;28;45274;-70
2021/09/21 07:04:59;;;;;;;;;27.75;22.00;;;;;16.03;100.00;102582.22;5019916;28;45471;-69
2021/09/21 07:07:24;;;;;;;;;21.50;18.00;;;;;16.09;100.00;102593.63;5019479;28;46562;-70
2021/09/21 07:09:49;;;;;;;;;23.75;22.00;;;;;16.16;100.00;102595.31;5019960;28;45382;-70
2021/09/21 07:12:15;;;;;;;;;22.50;19.75;;;;;16.20;100.00;102586.50;5020044;28;45447;-70
2021/09/21 07:14:40;;;;;;;;;22.50;19.25;;;;;16.38;100.00;102597.78;5019722;28;45496;-71
2021/09/21 07:20:27;;;;;;;;;19.25;16.50;;;;;16.63;100.00;102601.94;5019441;28;45352;-70
2021/09/21 07:22:53;;;;;;;;;23.50;18.25;;;;;16.69;100.00;102591.34;5019640;28;45284;-70
2021/09/21 07:25:19;;;;;;;;;19.00;17.75;;;;;16.80;100.00;102594.78;5019669;28;45357;-69
2021/09/21 07:27:46;;;;;;;;;18.75;18.00;;;;;17.00;100.00;102604.25;5019293;28;45696;-70
2021/09/21 07:30:12;;;;;;;;;18.75;17.75;;;;;17.17;100.00;102607.53;5019552;28;45282;-69
2021/09/21 07:32:38;;;;;;;;;17.75;16.00;;;;;17.30;100.00;102605.63;5019425;28;45287;-69
2021/09/21 07:35:04;;;;;;;;;17.75;14.25;;;;;17.48;100.00;102617.75;5019522;28;45271;-71
2021/09/21 07:37:30;;;;;;;;;17.00;16.50;;;;;17.62;100.00;102624.56;5019222;28;46593;-69
2021/09/21 07:39:56;;;;;;;;;15.50;15.25;;;;;17.76;100.00;102627.06;5019601;28;45262;-69
2021/09/21 07:42:22;;;;;;;;;14.75;14.00;;;;;17.93;100.00;102624.19;5019204;28;45437;-68
2021/09/21 07:44:47;;;;;;;;;15.50;15.00;;;;;18.03;100.00;102620.50;5019142;28;45443;-69
2021/09/21 07:50:35;;;;;;;;;14.50;12.50;;;;;18.53;100.00;102632.91;5017491;28;45649;-69
2021/09/21 07:53:00;;;;;;;;;13.25;12.00;;;;;18.72;100.00;102629.97;5019530;28;45295;-67
2021/09/21 07:55:26;;;;;;;;;12.75;10.25;;;;;18.87;100.00;102619.13;5019212;28;45322;-69
2021/09/21 07:57:51;;;;;;;;;12.50;12.00;;;;;19.15;100.00;102630.91;5018919;28;46342;-69
2021/09/21 08:00:21;;;;;;;;;13.00;11.00;;;;;19.38;100.00;102630.47;5018965;28;45388;-70
2021/09/21 08:02:47;;;;;;;;;13.00;10.50;;;;;19.64;100.00;102624.63;5019049;28;45365;-71
2021/09/21 08:05:13;;;;;;;;;13.50;12.50;;;;;19.88;100.00;102625.84;5018957;28;45559;-71
2021/09/21 08:07:40;;;;;;;;;11.50;10.75;;;;;20.15;100.00;102629.66;5018981;28;46068;-70
2021/09/21 08:10:07;;;;;;;;;12.50;11.00;;;;;20.42;100.00;102623.72;5018777;28;45573;-70
2021/09/21 08:12:32;;;;;;;;;11.50;10.00;;;;;20.65;100.00;102622.25;5018864;28;45502;-70
2021/09/21 08:14:58;;;;;;;;;12.50;11.00;;;;;20.90;100.00;102636.63;5018934;28;45396;-70
2021/09/21 08:20:45;;;;;;;;;11.75;9.75;;;;;21.43;100.00;102630.72;5018557;28;45544;-70
2021/09/21 08:23:10;;;;;;;;;11.25;10.25;;;;;21.70;100.00;102641.41;5018651;28;45277;-71
2021/09/21 08:25:36;;;;;;;;;11.75;9.75;;;;;21.90;100.00;102626.63;5018752;28;45277;-70
2021/09/21 08:28:01;;;;;;;;;10.00;9.00;;;;;22.22;100.00;102633.63;5018515;28;47499;-70
2021/09/21 08:30:28;;;;;;;;;12.00;10.00;;;;;22.54;100.00;102641.38;5018410;28;45443;-71
2021/09/21 08:32:53;;;;;;;;;10.00;9.75;;;;;22.81;100.00;102633.38;5018938;28;45292;-71
2021/09/21 08:35:19;;;;;;;;;13.75;10.75;;;;;23.18;100.00;102638.28;5018845;28;45300;-70
2021/09/21 08:37:44;;;;;;;;;10.25;10.00;;;;;;;;5018267;28;46571;-70
2021/09/21 08:40:09;;;;;;;;;11.75;10.75;;;;;23.90;100.00;102639.09;5018310;28;45495;-71
2021/09/21 08:42:35;;;;;;;;;9.00;8.00;;;;;24.14;100.00;102627.44;5018347;28;45328;-70
2021/09/21 08:45:01;;;;;;;;;9.50;7.50;;;;;24.56;100.00;102642.63;5018730;28;45388;-70
2021/09/21 08:50:48;;;;;;;;;10.75;6.75;;;;;25.22;100.00;102627.25;5017683;28;45349;-69
2021/09/21 08:53:13;;;;;;;;;8.00;7.00;;;;;25.55;100.00;102629.28;5018484;28;45382;-69
2021/09/21 08:55:38;;;;;;;;;8.00;8.00;;;;;25.92;100.00;102639.16;5018342;28;45378;-70
2021/09/21 08:58:04;;;;;;;;;6.50;6.25;;;;;26.31;96.00;102652.38;5016936;28;46153;-69
2021/09/21 09:00:31;;;;;;;;;5.75;5.75;;;;;26.72;96.26;102650.31;5017830;28;45357;-69
2021/09/21 09:03:05;;;;;;;;;7.25;6.25;;;;;27.27;93.33;102651.91;5017796;28;45357;-69
2021/09/21 09:05:48;;;;;;;;;8.00;7.25;;;;;27.82;90.31;102649.75;5018102;28;45320;-70
2021/09/21 09:08:26;;;;;;;;;7.00;5.50;;;;;28.27;87.45;102643.56;5017976;28;46338;-70
2021/09/21 09:10:51;;;;;;;;;6.00;6.00;;;;;28.91;84.33;102642.44;5017746;28;45370;-70
2021/09/21 09:13:18;;;;;;;;;5.75;5.50;;;;;29.61;83.05;102641.69;5017898;28;45263;-68
2021/09/21 09:15:54;;;;;;;;;6.00;6.00;;;;;30.26;79.25;102640.06;5017990;28;45455;-68
2021/09/21 09:18:27;;;;;;;;;7.50;5.00;;;;;30.89;77.85;102646.56;5017567;28;45540;-68
2021/09/21 09:20:54;;;;;;;;;5.00;5.00;;;;;31.39;74.74;102654.66;5017647;28;45415;-69
2021/09/21 09:23:19;;;;;;;;;7.00;6.00;;;;;31.72;72.60;102650.53;5017819;28;45259;-67
2021/09/21 09:25:47;;;;;;;;;6.00;5.75;;;;;31.93;72.75;102658.88;5017587;28;45360;-68
2021/09/21 09:28:24;;;;;;;;;5.75;5.75;;;;;31.81;71.35;102655.25;5017471;28;46281;-72
2021/09/21 09:30:51;;;;;;;;;8.50;7.00;;;;;31.54;70.44;102657.25;5017393;28;45465;-72
2021/09/21 09:33:17;;;;;;;;;6.50;6.50;;;;;31.15;70.81;102661.78;5017609;28;45266;-67
2021/09/21 09:35:45;;;;;;;;;6.75;6.00;;;;;30.74;70.07;102657.44;5017587;28;45544;-67
2021/09/21 09:38:17;;;;;;;;;6.75;6.75;;;;;30.52;72.16;102667.09;5017304;28;46334;-67
2021/09/21 09:40:51;;;;;;;;;8.25;8.25;;;;;30.35;71.93;102662.84;5017338;28;45467;-67
2021/09/21 09:43:19;;;;;;;;;8.00;7.00;;;;;30.26;72.09;102653.53;5017474;28;45421;-67
2021/09/21 09:45:48;;;;;;;;;8.75;8.50;;;;;30.42;72.44;102656.06;5017531;28;45267;-67
2021/09/21 09:48:17;;;;;;;;;9.50;8.50;;;;;30.55;71.80;102648.88;5017642;28;46212;-68
2021/09/21 09:50:44;;;;;;;;;7.00;7.00;;;;;31.02;70.87;102666.34;5017011;28;45231;-69
2021/09/21 09:53:12;;;;;;;;;9.00;8.00;;;;;31.68;69.51;102659.78;5017532;28;45203;-69
2021/09/21 09:55:49;;;;;;;;;9.25;8.25;;;;;32.50;68.84;102653.63;5017482;28;45388;-68
2021/09/21 09:58:17;;;;;;;;;8.75;8.75;;;;;33.37;67.13;102652.22;5016896;28;46760;-69
2021/09/21 10:00:43;;;;;;;;;11.25;10.00;;;;;34.09;65.01;102646.31;5017253;28;45294;-68
2021/09/21 10:06:34;;;;;;;;;13.00;11.75;;;;;35.08;60.49;102661.31;5017001;28;45342;-67
2021/09/21 10:08:59;;;;;;;;;12.00;10.50;;;;;35.28;60.37;102636.81;5016700;28;46437;-68
2021/09/21 10:11:27;;;;;;;;;10.25;9.50;;;;;35.76;58.69;102657.00;5016831;28;45274;-68
2021/09/21 10:13:53;;;;;;;;;11.00;10.00;;;;;36.07;58.15;102644.22;5017371;28;45380;-68
2021/09/21 10:16:19;;;;;;;;;11.25;11.00;;;;;36.63;57.04;102660.69;5017465;28;45459;-68
2021/09/21 10:18:45;;;;;;;;;12.25;11.00;;;;;37.10;54.87;102660.72;5016667;28;46173;-67
2021/09/21 10:21:11;;;;;;;;;11.75;10.75;;;;;37.55;54.24;102662.69;5016854;28;45356;-68
2021/09/21 10:23:42;;;;;;;;;13.75;12.75;;;;;37.95;52.50;102643.22;5016993;28;45437;-68
2021/09/21 10:26:19;;;;;;;;;10.25;10.00;;;;;38.45;50.83;102662.63;5016905;28;45378;-68
2021/09/21 10:28:50;;;;;;;;;9.25;9.00;;;;;38.75;49.59;102655.91;5016783;28;46279;-67
2021/09/21 10:31:18;;;;;;;;;13.50;13.00;;;;;39.02;48.24;102657.59;5016549;28;45204;-68
2021/09/21 10:33:44;;;;;;;;;14.50;12.75;;;;;39.19;48.15;102653.97;5016859;28;45511;-68
2021/09/21 10:36:23;;;;;;;;;15.50;15.00;;;;;39.41;46.90;102658.00;5016817;28;45385;-68
2021/09/21 10:39:04;;;;;;;;;13.25;13.00;;;;;39.58;45.09;102658.91;5016349;28;47892;-69
2021/09/21 10:41:30;;;;;;;;;15.75;15.00;;;;;39.20;45.03;102657.56;5016422;28;45616;-68
2021/09/21 10:44:13;;;;;;;;;11.75;11.00;;;;;39.31;45.92;102654.50;5016979;28;45876;-68
2021/09/21 10:46:59;;;;;;;;;12.50;11.75;;;;;39.83;44.93;102645.28;5016518;28;45605;-69
2021/09/21 10:49:45;;;;;;;;;13.75;12.75;;;;;40.62;42.61;102653.75;5016359;28;46237;-69
2021/09/21 10:52:16;;;;;;;;;11.50;11.50;;;;;41.21;42.20;102643.34;5016019;28;45434;-69
2021/09/21 10:54:54;;;;;;;;;14.75;13.00;;;;;41.73;42.17;102644.66;5016625;28;45492;-68
2021/09/21 10:57:32;;;;;;;;;13.00;12.00;;;;;41.56;40.58;102652.09;5016508;28;45382;-71
2021/09/21 11:00:06;;;;;;;;;12.00;11.50;;;;;41.02;40.99;102649.25;5016347;28;47314;-70
2021/09/21 11:02:36;;;;;;;;;12.75;12.75;;;;;41.11;41.23;102650.06;5016067;28;45291;-68
2021/09/21 11:05:04;;;;;;;;;13.25;12.25;;;;;41.47;41.28;102643.09;5016461;28;45409;-69
2021/09/21 11:07:29;;;;;;;;;15.75;14.75;;;;;41.84;40.80;102645.09;5016348;28;45319;-68
2021/09/21 11:09:56;;;;;;;;;14.75;14.25;;;;;42.11;39.63;102629.16;5016219;28;45990;-68
2021/09/21 11:12:24;;;;;;;;;16.50;13.00;;;;;42.55;39.11;102631.16;5016225;28;45501;-71
2021/09/21 11:14:52;;;;;;;;;14.75;14.75;;;;;42.97;38.58;102641.53;5016780;28;45402;-68
2021/09/21 11:17:24;;;;;;;;;15.75;14.75;;;;;43.16;38.29;102635.44;5016438;28;45373;-69
2021/09/21 11:19:55;;;;;;;;;15.50;14.75;;;;;43.43;37.06;102647.66;5016288;28;46638;-68
2021/09/21 11:22:26;;;;;;;;;14.25;14.00;;;;;43.66;35.95;102633.75;5019520;28;45532;-70
2021/09/21 11:24:59;;;;;;;;;14.50;11.75;;;;;43.85;36.27;102635.03;5019678;28;45419;-69
2021/09/21 11:27:24;;;;;;;;;17.00;16.75;;;;;43.35;34.80;102634.88;5019671;28;45363;-67
2021/09/21 11:29:59;;;;;;;;;19.75;16.75;;;;;42.40;34.31;102620.13;5019195;28;47026;-70
2021/09/21 11:32:24;;;;;;;;;16.25;14.75;;;;;42.37;36.30;102618.59;5019722;28;45227;-69
2021/09/21 11:34:59;;;;;;;;;15.50;14.00;;;;;42.68;36.50;102625.88;5019159;28;45461;-70
2021/09/21 11:37:26;;;;;;;;;17.25;15.25;;;;;42.94;36.50;102629.03;5020165;28;45358;-69
2021/09/21 11:39:51;;;;;;;;;13.75;12.75;;;;;43.06;36.53;102624.75;5019196;28;47257;-69
2021/09/21 11:42:25;;;;;;;;;14.75;14.00;;;;;42.97;36.28;102612.16;5019153;28;45392;-68
2021/09/21 11:44:58;;;;;;;;;15.00;14.25;;;;;42.95;35.67;102630.72;5019410;28;45235;-68
2021/09/21 11:47:23;;;;;;;;;14.00;14.00;;;;;42.72;35.13;102619.81;5019145;28;45357;-69
2021/09/21 11:49:53;;;;;;;;;13.25;13.00;;;;;42.85;35.22;102621.91;5019173;28;46613;-69
2021/09/21 11:52:21;;;;;;;;;15.50;15.25;;;;;43.00;36.14;102625.50;5019013;28;45732;-69
2021/09/21 11:54:47;;;;;;;;;16.00;15.25;;;;;43.17;35.16;102622.56;5019382;28;45358;-69
2021/09/21 11:57:13;;;;;;;;;17.00;16.75;;;;;42.67;34.20;102622.28;5019126;28;45362;-68
2021/09/21 11:59:40;;;;;;;;;17.00;16.00;;;;;41.65;34.03;102614.56;5018760;28;47528;-69
2021/09/21 12:02:06;;;;;;;;;17.25;16.00;;;;;40.26;34.31;102617.63;5019233;28;45270;-69
2021/09/21 12:04:32;;;;;;;;;17.00;16.25;;;;;38.91;35.04;102611.41;5019200;28;45429;-69
2021/09/21 12:06:58;;;;;;;;;17.25;17.00;;;;;38.21;36.59;102608.69;5018964;28;45446;-70
2021/09/21 12:09:23;;;;;;;;;15.50;15.00;;;;;38.16;37.63;102616.47;5018885;28;47195;-69
2021/09/21 12:11:49;;;;;;;;;17.00;14.00;;;;;37.72;37.19;102618.28;5018741;28;45438;-69
2021/09/21 12:14:18;;;;;;;;;15.75;14.50;;;;;37.01;38.35;102618.03;5018922;28;45300;-69
2021/09/21 12:16:51;;;;;;;;;16.75;16.25;;;;;36.47;39.51;102614.16;5018896;28;45587;-69
2021/09/21 12:19:18;;;;;;;;;14.50;13.75;;;;;36.04;40.61;102604.56;5018675;28;46555;-70